Terminal Aerodrome Forecast
Issued by NWS

Home | Current Version | Previous Version | Text Only | Print | Product List | Glossary On
Versions: 1 2 3 4 5 6 7 8 9 10 11 12 13 14
030
FTUS42 TJSJ 061120
TAFJSJ
TAF
TJSJ 061120Z 0612/0712 09008KT P6SM FEW025 SCT040
     FM061400 12010KT P6SM VCSH FEW030 SCT060
     FM062330 13008KT P6SM SCT025 SCT040=

USA.gov is the U.S. government's official web portal to all federal, state and local government web resources and services.